Time;durP1;ratioP1;P1;durP2;ratioP2;P2;SDS_P1;SDS_P2;PMS_P1;PMS_P2;Temp;Humidity;BMP_temperature;BMP_pressure;BME280_temperature;BME280_humidity;BME280_pressure;Samples;Min_cycle;Max_cycle;Signal;HPM_P1;HPM_P2
2021/01/15 00:02:16;;;;;;;3.33;2.53;;;;;;;0.16;54.99;94065.91;5113898;27;20191;-74
2021/01/15 00:04:42;;;;;;;3.23;2.97;;;;;;;0.20;54.65;94074.75;5135388;27;20185;-74
2021/01/15 00:07:07;;;;;;;5.40;3.10;;;;;;;0.21;54.72;94076.31;5135033;27;20180;-75
2021/01/15 00:09:33;;;;;;;3.13;2.47;;;;;;;0.26;54.96;94072.78;5134512;27;20169;-74
2021/01/15 00:11:58;;;;;;;3.13;2.83;;;;;;;0.31;54.21;94080.53;5134596;27;20263;-75
2021/01/15 00:14:24;;;;;;;2.70;2.50;;;;;;;0.41;55.26;94084.78;5134679;27;20605;-74
2021/01/15 00:16:53;;;;;;;2.80;2.60;;;;;;;0.38;54.35;94088.75;5115584;27;20189;-74
2021/01/15 00:19:19;;;;;;;3.15;2.67;;;;;;;0.41;54.99;94088.19;5116248;27;20625;-74
2021/01/15 00:21:48;;;;;;;2.97;2.70;;;;;;;0.23;54.74;94082.03;5134053;27;20243;-74
2021/01/15 00:24:17;;;;;;;2.83;2.38;;;;;;;0.43;54.96;94085.25;5134523;27;20173;-74
2021/01/15 00:26:43;;;;;;;3.40;3.03;;;;;;;0.42;54.44;94073.97;5134243;27;20183;-75
2021/01/15 00:29:18;;;;;;;4.23;2.90;;;;;;;0.16;55.34;94084.28;5134353;27;20165;-75
2021/01/15 00:31:44;;;;;;;3.35;2.83;;;;;;;0.32;55.22;94083.94;5133877;27;20686;-74
2021/01/15 00:34:11;;;;;;;2.75;2.55;;;;;;;-0.17;56.01;94082.97;5134166;27;20206;-75
2021/01/15 00:36:37;;;;;;;3.10;2.55;;;;;;;-0.08;56.35;94073.31;5137586;27;20243;-75
2021/01/15 00:39:04;;;;;;;3.85;2.88;;;;;;;0.09;55.53;94076.06;5134162;27;20267;-74
2021/01/15 00:41:33;;;;;;;4.47;3.45;;;;;;;0.02;56.33;94075.72;5124612;27;20211;-76
2021/01/15 00:43:58;;;;;;;3.03;2.72;;;;;;;0.24;55.94;94083.59;5133397;27;20177;-76
2021/01/15 00:46:31;;;;;;;2.90;2.70;;;;;;;0.18;55.53;94087.41;5134052;27;20558;-75
2021/01/15 00:49:17;;;;;;;3.53;3.22;;;;;;;0.30;55.72;94088.72;5133973;27;20652;-75
2021/01/15 00:51:52;;;;;;;5.00;2.88;;;;;;;0.38;55.17;94091.38;5133374;27;20640;-75
2021/01/15 00:54:18;;;;;;;2.83;2.60;;;;;;;0.10;55.01;94089.97;5134162;27;20177;-76
2021/01/15 00:56:43;;;;;;;4.00;2.97;;;;;;;-0.11;56.15;94100.16;5133934;27;20196;-76
2021/01/15 00:59:09;;;;;;;3.93;3.47;;;;;;;-0.13;55.88;94097.81;5133743;27;20645;-76
2021/01/15 01:01:36;;;;;;;4.60;3.13;;;;;;;-0.01;55.42;94090.19;5133841;27;20236;-74
2021/01/15 01:04:02;;;;;;;5.60;3.92;;;;;;;-0.07;56.04;94106.34;5128877;27;20172;-73
2021/01/15 01:06:27;;;;;;;3.70;2.87;;;;;;;-0.28;56.76;94113.91;5133389;27;20201;-74
2021/01/15 01:08:52;;;;;;;3.00;2.73;;;;;;;-0.13;57.05;94112.78;5133342;27;20296;-74
2021/01/15 01:11:22;;;;;;;4.00;2.70;;;;;;;0.05;56.08;94117.09;5133464;27;20180;-75
2021/01/15 01:13:49;;;;;;;4.40;3.88;;;;;;;0.00;56.49;94127.75;5133016;27;20559;-74
2021/01/15 01:16:15;;;;;;;4.38;3.35;;;;;;;-0.01;56.08;94124.31;5133437;27;20181;-75
2021/01/15 01:18:40;;;;;;;5.15;4.18;;;;;;;-0.17;56.81;94133.63;5142442;27;20208;-75
2021/01/15 01:21:06;;;;;;;5.07;3.43;;;;;;;-0.30;57.39;94134.41;5133312;27;20227;-75
2021/01/15 01:23:32;;;;;;;4.10;3.70;;;;;;;-0.02;56.53;94135.88;5132959;27;20165;-74
2021/01/15 01:25:57;;;;;;;3.73;3.20;;;;;;;-0.18;55.93;94132.03;5127865;27;20164;-74
2021/01/15 01:28:23;;;;;;;3.87;3.07;;;;;;;0.01;56.11;94125.88;5132850;27;20768;-75
2021/01/15 01:30:48;;;;;;;3.57;3.27;;;;;;;0.03;56.30;94121.13;5133071;27;20644;-75
2021/01/15 01:33:14;;;;;;;3.50;3.20;;;;;;;0.20;55.66;94116.00;5133110;27;20557;-74
2021/01/15 01:35:39;;;;;;;3.67;3.37;;;;;;;0.09;55.09;94120.69;5124766;27;20169;-74
2021/01/15 01:38:05;;;;;;;3.90;3.20;;;;;;;0.25;55.21;94119.28;5132953;27;20221;-75
2021/01/15 01:40:31;;;;;;;3.88;3.47;;;;;;;0.41;54.90;94139.94;5132632;27;20199;-75
2021/01/15 01:42:57;;;;;;;4.47;3.23;;;;;;;0.45;54.02;94135.63;5127392;27;20283;-75
2021/01/15 01:45:22;;;;;;;4.10;3.73;;;;;;;0.27;54.55;94134.72;5132654;27;20602;-75
2021/01/15 01:47:48;;;;;;;4.73;2.97;;;;;;;0.24;54.79;94130.84;5132868;27;20313;-75
2021/01/15 01:50:13;;;;;;;3.33;2.80;;;;;;;0.42;54.25;94136.22;5128964;27;20185;-75
2021/01/15 01:52:39;;;;;;;4.97;2.87;;;;;;;0.45;53.40;94152.19;5124903;27;20562;-75
2021/01/15 01:55:05;;;;;;;3.23;2.67;;;;;;;0.03;54.02;94145.50;5131365;27;20173;-74
2021/01/15 01:57:31;;;;;;;4.63;3.13;;;;;;;0.21;53.98;94144.56;5123395;27;20173;-74
2021/01/15 01:59:56;;;;;;;3.58;3.35;;;;;;;0.18;54.49;94142.56;5132539;27;20422;-74
2021/01/15 02:02:22;;;;;;;3.33;3.03;;;;;;;0.18;54.87;94144.41;5147698;27;20211;-73
2021/01/15 02:04:47;;;;;;;4.37;3.50;;;;;;;0.20;55.64;94144.88;5132634;27;20197;-75
2021/01/15 02:07:13;;;;;;;5.10;3.53;;;;;;;0.37;55.17;94137.13;5132288;27;20197;-74
2021/01/15 02:10:01;;;;;;;5.18;3.63;;;;;;;0.14;55.14;94133.72;5132515;27;20260;-73
2021/01/15 02:12:38;;;;;;;4.15;3.13;;;;;;;0.29;54.83;94135.22;5138227;27;20194;-74
2021/01/15 02:15:15;;;;;;;4.57;3.13;;;;;;;0.19;54.89;94132.81;5143986;27;20190;-74
2021/01/15 02:17:46;;;;;;;3.17;2.63;;;;;;;0.06;55.01;94137.06;5141599;27;20168;-74
2021/01/15 02:20:21;;;;;;;5.53;3.33;;;;;;;-0.08;55.95;94131.06;5131302;28;20169;-74
2021/01/15 02:23:01;;;;;;;5.57;3.00;;;;;;;0.01;56.62;94139.00;5125170;28;20212;-74
2021/01/15 02:25:53;;;;;;;4.30;3.25;;;;;;;0.04;56.49;94141.81;5132098;27;20271;-73
2021/01/15 02:28:18;;;;;;;6.10;3.20;;;;;;;0.07;56.81;94148.31;5124095;28;20188;-74
2021/01/15 02:31:26;;;;;;;3.57;3.27;;;;;;;-0.19;57.00;94137.59;5132028;28;20180;-74
2021/01/15 02:34:10;;;;;;;3.80;3.33;;;;;;;-0.08;57.18;94147.56;5126648;28;20227;-73
2021/01/15 02:36:46;;;;;;;3.53;3.22;;;;;;;0.08;57.30;94152.50;5132067;28;20216;-73
2021/01/15 02:39:50;;;;;;;4.60;3.25;;;;;;;0.22;56.13;94151.38;5131047;28;20202;-73
2021/01/15 02:42:16;;;;;;;3.90;3.58;;;;;;;0.16;56.81;94146.53;5131789;28;20770;-73
2021/01/15 02:44:42;;;;;;;5.20;3.83;;;;;;;0.08;56.89;94150.66;5096029;28;20189;-74
2021/01/15 02:47:07;;;;;;;4.53;3.87;;;;;;;0.11;56.66;94150.03;5113609;28;20226;-73
2021/01/15 02:49:34;;;;;;;4.87;3.53;;;;;;;0.20;57.05;94153.53;5115801;28;20251;-73
2021/01/15 02:51:59;;;;;;;4.78;3.53;;;;;;;0.10;57.01;94143.25;5113826;28;20165;-74
2021/01/15 02:54:25;;;;;;;5.50;3.50;;;;;;;-0.05;56.62;94144.38;5130980;28;20181;-74
2021/01/15 02:56:50;;;;;;;4.33;3.23;;;;;;;-0.03;56.59;94152.72;5130893;28;20176;-74
2021/01/15 02:59:16;;;;;;;3.40;2.93;;;;;;;0.05;57.20;94156.47;5131769;28;20184;-75
2021/01/15 03:01:53;;;;;;;4.20;3.80;;;;;;;0.17;56.52;94162.00;5131975;28;20203;-74
2021/01/15 03:04:36;;;;;;;3.70;3.40;;;;;;;-0.14;56.45;94153.22;5131687;28;20169;-74
2021/01/15 03:07:02;;;;;;;4.20;3.40;;;;;;;-0.01;57.39;94168.94;5113609;28;20169;-73
2021/01/15 03:09:31;;;;;;;4.50;3.53;;;;;;;-0.01;56.61;94166.31;5127164;27;20248;-74
2021/01/15 03:11:58;;;;;;;4.43;3.30;;;;;;;0.08;57.21;94174.28;5135544;27;20181;-75
2021/01/15 03:14:23;;;;;;;4.28;3.03;;;;;;;0.17;57.29;94183.00;5116817;27;20188;-75
2021/01/15 03:16:49;;;;;;;5.80;4.40;;;;;;;0.13;57.32;94182.03;5135585;27;20200;-73
2021/01/15 03:19:14;;;;;;;4.07;3.67;;;;;;;0.16;56.51;94165.69;5117083;27;20177;-73
2021/01/15 03:21:40;;;;;;;5.07;3.93;;;;;;;0.30;56.35;94180.63;5117273;27;20256;-73
2021/01/15 03:24:06;;;;;;;4.57;3.40;;;;;;;0.48;56.38;94182.31;5134078;27;20161;-73
2021/01/15 03:26:32;;;;;;;4.07;3.33;;;;;;;0.57;55.66;94185.78;5135633;27;20169;-74
2021/01/15 03:28:57;;;;;;;6.00;3.47;;;;;;;0.40;55.39;94173.31;5135384;27;20256;-74
2021/01/15 03:31:23;;;;;;;3.77;3.27;;;;;;;0.32;56.07;94171.38;5135379;27;20738;-73
2021/01/15 03:33:48;;;;;;;4.97;3.27;;;;;;;0.39;55.31;94176.97;5135324;27;20205;-74
2021/01/15 03:36:14;;;;;;;6.97;3.97;;;;;;;0.29;56.45;94176.47;5134916;27;20708;-73
2021/01/15 03:38:39;;;;;;;7.27;3.80;;;;;;;0.13;56.58;94168.13;5135209;27;20176;-74
2021/01/15 03:41:05;;;;;;;3.73;3.30;;;;;;;0.39;56.48;94179.59;5134846;27;20200;-74
2021/01/15 03:43:30;;;;;;;5.23;4.13;;;;;;;0.35;57.38;94177.91;5135115;27;20184;-74
2021/01/15 03:45:56;;;;;;;4.10;3.40;;;;;;;0.29;57.58;94190.38;5134881;27;20175;-73
2021/01/15 03:48:22;;;;;;;5.27;3.50;;;;;;;0.42;57.61;94194.00;5134955;27;20722;-73
2021/01/15 03:50:48;;;;;;;5.40;3.13;;;;;;;0.38;56.75;94179.91;5115950;27;20653;-73
2021/01/15 03:53:16;;;;;;;4.28;3.67;;;;;;;0.38;57.09;94182.53;5134965;27;20196;-74
2021/01/15 03:55:42;;;;;;;3.78;3.17;;;;;;;0.45;56.80;94196.81;5116486;27;20600;-74
2021/01/15 03:58:07;;;;;;;4.00;3.60;;;;;;;0.38;56.71;94174.66;5134925;27;20205;-73
2021/01/15 04:00:33;;;;;;;4.17;3.73;;;;;;;0.53;57.04;94187.44;5134953;27;20196;-73
2021/01/15 04:02:58;;;;;;;5.77;4.57;;;;;;;0.55;56.50;94189.78;5133929;27;20246;-74
2021/01/15 04:05:24;;;;;;;5.00;3.73;;;;;;;0.26;57.04;94188.31;5134794;27;20607;-74
2021/01/15 04:07:49;;;;;;;3.63;3.30;;;;;;;0.34;56.78;94187.63;5134488;27;20165;-75
2021/01/15 04:10:16;;;;;;;5.00;3.10;;;;;;;0.14;56.81;94193.31;5134578;27;20215;-74
2021/01/15 04:12:42;;;;;;;4.47;3.13;;;;;;;0.36;57.32;94200.44;5133172;27;20951;-75
2021/01/15 04:15:11;;;;;;;5.47;3.70;;;;;;;0.41;57.24;94200.34;5133345;27;20177;-74
2021/01/15 04:17:37;;;;;;;3.65;3.28;;;;;;;0.44;56.10;94207.59;5134382;27;20169;-75
2021/01/15 04:20:06;;;;;;;4.77;3.70;;;;;;;0.44;56.04;94204.97;5114382;27;20180;-75
2021/01/15 04:22:35;;;;;;;4.35;3.40;;;;;;;0.57;55.59;94212.06;5115731;27;20287;-75
2021/01/15 04:25:00;;;;;;;3.97;3.22;;;;;;;0.66;55.60;94218.13;5134315;27;20644;-75
2021/01/15 04:27:32;;;;;;;5.03;3.53;;;;;;;0.61;55.65;94209.59;5134210;27;20260;-74
2021/01/15 04:30:04;;;;;;;7.82;3.72;;;;;;;0.47;56.57;94214.91;5133119;27;20169;-75
2021/01/15 04:32:30;;;;;;;4.40;3.47;;;;;;;0.51;56.65;94226.38;5133839;27;20169;-75
2021/01/15 04:34:55;;;;;;;7.57;4.50;;;;;;;0.41;56.11;94223.97;5115414;27;20257;-75
2021/01/15 04:37:21;;;;;;;5.07;3.27;;;;;;;0.25;55.84;94220.91;5126837;27;20470;-75
2021/01/15 04:39:46;;;;;;;3.90;3.47;;;;;;;0.57;55.92;94222.56;5133786;27;20185;-74
2021/01/15 04:42:15;;;;;;;5.67;4.00;;;;;;;0.61;56.19;94225.34;5130788;27;20203;-74
2021/01/15 04:44:42;;;;;;;3.67;3.30;;;;;;;0.53;56.11;94218.97;5133935;27;20173;-73
2021/01/15 04:47:08;;;;;;;4.95;3.60;;;;;;;0.50;56.26;94227.44;5147224;27;20173;-74
2021/01/15 04:49:34;;;;;;;4.57;3.65;;;;;;;0.36;56.27;94218.84;5142207;27;20180;-75
2021/01/15 04:52:03;;;;;;;5.85;3.60;;;;;;;0.35;56.38;94223.31;5149874;27;20172;-74
2021/01/15 04:54:39;;;;;;;3.50;3.20;;;;;;;0.18;57.37;94223.16;5133568;27;20716;-74
2021/01/15 04:57:09;;;;;;;4.78;4.25;;;;;;;0.17;57.01;94219.75;5133746;27;20181;-75
2021/01/15 04:59:48;;;;;;;5.63;4.13;;;;;;;0.31;56.90;94222.34;5141777;27;20208;-74
2021/01/15 05:02:17;;;;;;;5.70;4.03;;;;;;;0.39;56.73;94229.50;5133626;27;20246;-74
2021/01/15 05:04:43;;;;;;;5.15;4.07;;;;;;;0.51;56.29;94235.03;5133021;27;20244;-73
2021/01/15 05:07:09;;;;;;;5.27;3.63;;;;;;;0.52;56.72;94233.97;5133450;27;20173;-73
2021/01/15 05:09:40;;;;;;;5.32;4.07;;;;;;;0.52;56.39;94239.22;5133300;27;20645;-73
2021/01/15 05:12:07;;;;;;;3.92;3.58;;;;;;;0.52;56.42;94233.19;5129316;27;20169;-74
2021/01/15 05:14:33;;;;;;;5.47;4.25;;;;;;;0.49;56.61;94239.78;5124409;27;20664;-75
2021/01/15 05:17:01;;;;;;;7.00;4.30;;;;;;;0.38;56.75;94250.81;5133398;27;20185;-75
2021/01/15 05:19:26;;;;;;;4.82;3.50;;;;;;;0.19;57.63;94243.88;5132973;27;20441;-75
2021/01/15 05:21:51;;;;;;;4.60;3.77;;;;;;;0.28;56.73;94240.53;5133155;27;20753;-74
2021/01/15 05:24:17;;;;;;;6.90;4.37;;;;;;;0.36;58.48;94250.34;5130620;27;20177;-75
2021/01/15 05:26:43;;;;;;;6.83;4.03;;;;;;;0.05;58.31;94253.59;5125623;27;20161;-73
2021/01/15 05:29:08;;;;;;;5.80;4.43;;;;;;;0.27;57.59;94247.63;5133197;27;20169;-75
2021/01/15 05:31:55;;;;;;;4.70;4.00;;;;;;;0.27;57.10;94258.13;5123859;27;20176;-75
2021/01/15 05:34:24;;;;;;;7.15;4.20;;;;;;;0.31;57.41;94260.97;5132919;27;20661;-74
2021/01/15 05:36:50;;;;;;;5.85;3.97;;;;;;;0.45;57.59;94264.31;5126496;27;20228;-74
2021/01/15 05:39:20;;;;;;;5.10;4.00;;;;;;;0.45;56.74;94256.44;5131678;27;20570;-73
2021/01/15 05:41:46;;;;;;;5.57;4.55;;;;;;;0.60;56.54;94268.47;5142811;27;20197;-73
2021/01/15 05:44:23;;;;;;;9.23;4.05;;;;;;;0.60;57.46;94271.88;5148939;27;20173;-73
2021/01/15 05:46:48;;;;;;;11.95;4.45;;;;;;;0.47;56.53;94260.34;5125935;27;20172;-74
2021/01/15 05:49:14;;;;;;;5.53;4.10;;;;;;;0.49;57.12;94260.81;5131553;27;20184;-74
2021/01/15 05:51:40;;;;;;;5.03;4.10;;;;;;;0.59;56.23;94282.69;5132494;27;20648;-73
2021/01/15 05:54:07;;;;;;;4.20;3.77;;;;;;;0.61;56.59;94280.53;5132709;27;20224;-73
2021/01/15 05:56:45;;;;;;;7.78;4.20;;;;;;;0.51;56.98;94278.91;5132414;27;20165;-75
2021/01/15 05:59:20;;;;;;;6.75;4.15;;;;;;;0.62;56.86;94284.69;5128762;27;20185;-76
2021/01/15 06:01:59;;;;;;;6.75;4.10;;;;;;;0.25;56.61;94284.69;5125386;27;20204;-75
2021/01/15 06:04:37;;;;;;;5.53;4.55;;;;;;;0.47;57.36;94309.47;5130477;27;20177;-74
2021/01/15 06:07:08;;;;;;;8.73;4.45;;;;;;;0.40;56.77;94309.09;5132770;27;20656;-76
2021/01/15 06:09:34;;;;;;;5.22;3.72;;;;;;;0.23;57.45;94310.47;5132388;27;20180;-74
2021/01/15 06:12:07;;;;;;;5.40;3.50;;;;;;;0.22;58.62;94311.53;5144658;27;20169;-76
2021/01/15 06:14:32;;;;;;;3.92;3.53;;;;;;;0.41;57.05;94308.78;5132318;27;20660;-74
2021/01/15 06:17:04;;;;;;;4.53;3.20;;;;;;;0.59;57.33;94304.47;5132611;27;20181;-76
2021/01/15 06:19:45;;;;;;;5.93;4.10;;;;;;;0.30;57.53;94317.19;5124504;27;20176;-75
2021/01/15 06:22:44;;;;;;;6.70;4.30;;;;;;;0.47;58.07;94325.22;5132355;28;20188;-75
2021/01/15 06:25:36;;;;;;;5.68;3.67;;;;;;;0.52;57.38;94323.28;5128718;28;20169;-74
2021/01/15 06:28:03;;;;;;;6.22;3.75;;;;;;;0.40;56.81;94332.75;5125589;28;20180;-74
2021/01/15 06:30:30;;;;;;;4.82;3.65;;;;;;;0.54;57.75;94322.97;5122836;28;20184;-74
2021/01/15 06:33:12;;;;;;;7.53;4.13;;;;;;;0.57;57.57;94327.66;5130048;28;20181;-74
2021/01/15 06:35:43;;;;;;;4.97;3.78;;;;;;;0.69;57.05;94340.28;5147230;27;20268;-75
2021/01/15 06:38:16;;;;;;;7.07;3.65;;;;;;;0.53;56.72;94340.59;5130897;28;20180;-74
2021/01/15 06:40:49;;;;;;;4.53;3.75;;;;;;;0.40;57.13;94332.75;5141449;27;20556;-74
2021/01/15 06:43:17;;;;;;;5.82;4.10;;;;;;;0.40;56.19;94351.13;5132780;27;20228;-75
2021/01/15 06:45:47;;;;;;;8.20;3.90;;;;;;;0.55;55.70;94368.41;5136326;27;20302;-74
2021/01/15 06:48:17;;;;;;;7.97;3.92;;;;;;;0.62;56.40;94358.25;5136063;27;20177;-75
2021/01/15 06:50:47;;;;;;;5.53;3.42;;;;;;;0.34;56.58;94365.41;5146026;27;20576;-74
2021/01/15 06:53:20;;;;;;;4.97;3.90;;;;;;;0.37;57.04;94367.47;5135805;27;20173;-74
2021/01/15 06:55:47;;;;;;;5.25;3.60;;;;;;;0.43;56.23;94377.56;5136004;27;20169;-74
2021/01/15 06:58:18;;;;;;;7.07;4.20;;;;;;;0.47;56.80;94377.75;5135576;27;20601;-76
2021/01/15 07:01:06;;;;;;;7.00;4.05;;;;;;;0.54;57.14;94378.13;5135948;27;20264;-74
2021/01/15 07:04:01;;;;;;;7.30;3.63;;;;;;;0.69;56.16;94383.09;5127100;27;20180;-75
2021/01/15 07:06:28;;;;;;;4.40;3.47;;;;;;;0.56;55.86;94376.00;5148740;27;20653;-74
2021/01/15 07:08:57;;;;;;;5.88;3.92;;;;;;;0.61;56.66;94381.13;5130171;27;20184;-75
2021/01/15 07:11:24;;;;;;;5.97;3.97;;;;;;;0.78;55.74;94399.69;5122608;27;20309;-74
2021/01/15 07:13:54;;;;;;;6.38;4.10;;;;;;;0.90;55.27;94398.41;5114250;28;20934;-76
2021/01/15 07:16:30;;;;;;;7.70;3.53;;;;;;;0.93;55.10;94401.25;5113295;27;20172;-74
2021/01/15 07:19:13;;;;;;;4.72;3.67;;;;;;;0.62;55.97;94402.94;5117143;27;20239;-75
2021/01/15 07:22:01;;;;;;;7.15;4.20;;;;;;;0.57;57.62;94414.34;5125176;27;20196;-75
2021/01/15 07:24:28;;;;;;;6.45;3.95;;;;;;;0.72;56.35;94416.66;5127734;27;20610;-74
2021/01/15 07:26:53;;;;;;;8.80;4.07;;;;;;;0.35;56.88;94425.53;5132361;27;20640;-75
2021/01/15 07:29:19;;;;;;;6.37;4.57;;;;;;;0.56;57.23;94423.28;5135180;27;20272;-74
2021/01/15 07:31:46;;;;;;;6.80;4.03;;;;;;;0.61;57.08;94420.56;5128047;27;20237;-74
2021/01/15 07:34:14;;;;;;;5.55;4.28;;;;;;;0.82;56.97;94423.56;5135398;27;20173;-75
2021/01/15 07:36:39;;;;;;;4.80;3.78;;;;;;;0.93;54.93;94422.28;5127202;27;20217;-75
2021/01/15 07:39:05;;;;;;;5.07;4.17;;;;;;;0.88;55.10;94434.75;5135356;27;20184;-75
2021/01/15 07:41:40;;;;;;;6.67;4.17;;;;;;;0.89;56.15;94439.69;5135134;27;20193;-75
2021/01/15 07:44:22;;;;;;;5.35;3.85;;;;;;;1.08;55.15;94436.19;5130616;27;20180;-75
2021/01/15 07:46:57;;;;;;;6.72;3.50;;;;;;;1.09;55.08;94429.84;5134893;27;20633;-75
2021/01/15 07:49:23;;;;;;;6.32;3.80;;;;;;;1.20;54.53;94436.44;5150539;27;20172;-76
2021/01/15 07:52:04;;;;;;;8.27;3.37;;;;;;;1.17;55.17;94444.91;5134843;27;20323;-74
2021/01/15 07:54:50;;;;;;;6.40;4.53;;;;;;;1.13;54.92;94441.34;5134644;27;20169;-74
2021/01/15 07:57:16;;;;;;;5.90;4.18;;;;;;;1.19;54.88;94433.03;5131887;27;20183;-75
2021/01/15 07:59:42;;;;;;;5.07;3.67;;;;;;;1.08;53.71;94428.28;5150101;27;20177;-75
2021/01/15 08:02:08;;;;;;;6.30;4.50;;;;;;;1.22;54.63;94442.94;5150585;27;20201;-76
2021/01/15 08:04:33;;;;;;;6.23;4.63;;;;;;;1.16;54.00;94443.34;5143335;27;20604;-77
2021/01/15 08:07:29;;;;;;;6.20;4.60;;;;;;;0.90;54.13;94454.41;5150281;27;20583;-74
2021/01/15 08:09:55;;;;;;;5.95;4.40;;;;;;;0.92;54.86;94447.00;5128315;27;20238;-75
2021/01/15 08:12:20;;;;;;;12.00;3.83;;;;;;;1.05;54.80;94435.69;5133532;27;20173;-76
2021/01/15 08:14:46;;;;;;;4.83;4.23;;;;;;;1.15;54.81;94454.97;5134622;27;20197;-76
2021/01/15 08:17:14;;;;;;;5.93;4.43;;;;;;;1.25;54.93;94449.47;5133066;27;20181;-76
2021/01/15 08:19:39;;;;;;;7.63;3.75;;;;;;;1.44;54.70;94458.00;5150228;27;20173;-75
2021/01/15 08:22:12;;;;;;;6.47;4.13;;;;;;;1.20;54.99;94460.88;5150157;27;20626;-75
2021/01/15 08:24:44;;;;;;;5.53;3.60;;;;;;;1.31;55.12;94454.34;5133257;27;20172;-76
2021/01/15 08:27:23;;;;;;;5.68;3.67;;;;;;;1.30;55.49;94457.25;5134175;27;20176;-76
2021/01/15 08:29:50;;;;;;;6.53;4.28;;;;;;;1.28;54.72;94464.66;5149126;27;20165;-75
2021/01/15 08:32:15;;;;;;;5.20;3.90;;;;;;;1.38;54.11;94467.06;5115510;27;20188;-76
2021/01/15 08:34:41;;;;;;;8.43;4.37;;;;;;;1.35;54.40;94467.69;5134035;27;20169;-76
2021/01/15 08:37:09;;;;;;;7.53;4.07;;;;;;;1.25;54.57;94475.78;5132190;27;20259;-76
2021/01/15 08:39:50;;;;;;;5.75;4.15;;;;;;;1.33;54.17;94475.06;5149970;27;20168;-74
2021/01/15 08:42:16;;;;;;;5.18;4.60;;;;;;;1.58;54.11;94468.47;5133731;27;20204;-73
2021/01/15 08:44:42;;;;;;;11.10;4.73;;;;;;;1.69;54.59;94475.06;5134119;27;20605;-75
2021/01/15 08:47:09;;;;;;;5.67;4.47;;;;;;;1.80;53.00;94470.34;5133583;27;20205;-75
2021/01/15 08:49:35;;;;;;;6.40;4.30;;;;;;;1.48;53.60;94458.19;5133707;27;20181;-76
2021/01/15 08:52:01;;;;;;;6.47;4.00;;;;;;;1.65;53.45;94460.16;5149528;27;20253;-76
2021/01/15 08:54:27;;;;;;;15.67;3.63;;;;;;;1.71;53.64;94465.00;5132446;27;20200;-75
2021/01/15 08:56:52;;;;;;;6.33;4.63;;;;;;;1.65;53.34;94479.38;5132301;27;20177;-76
2021/01/15 08:59:31;;;;;;;5.27;3.87;;;;;;;1.47;52.02;94457.41;5133525;27;20684;-76
2021/01/15 09:02:00;;;;;;;12.38;4.30;;;;;;;1.52;52.79;94454.66;5148348;27;20196;-76
2021/01/15 09:04:30;;;;;;;4.88;4.22;;;;;;;1.52;52.93;94452.03;5133561;27;20177;-76
2021/01/15 09:06:57;;;;;;;4.68;3.78;;;;;;;1.59;53.11;94454.25;5132657;27;20165;-76
2021/01/15 09:09:23;;;;;;;30.77;5.97;;;;;;;1.50;52.75;94450.75;5133506;27;20173;-76
2021/01/15 09:11:50;;;;;;;8.48;4.25;;;;;;;1.63;52.45;94436.78;5132216;27;20173;-76
2021/01/15 09:14:21;;;;;;;6.75;3.95;;;;;;;1.55;51.09;94450.66;5149136;27;20180;-76
2021/01/15 09:16:48;;;;;;;5.65;3.80;;;;;;;1.76;52.02;94454.38;5133274;27;20260;-76
2021/01/15 09:19:14;;;;;;;4.82;3.55;;;;;;;1.98;51.05;94456.22;5148929;27;20181;-76
2021/01/15 09:22:07;;;;;;;5.17;3.70;;;;;;;1.98;50.86;94444.91;5133194;27;20668;-75
2021/01/15 09:24:32;;;;;;;4.20;3.22;;;;;;;1.76;50.98;94437.78;5133280;27;20547;-76
2021/01/15 09:26:59;;;;;;;7.80;3.77;;;;;;;2.04;51.36;94441.84;5131768;27;20275;-75
2021/01/15 09:29:25;;;;;;;5.60;3.80;;;;;;;2.27;50.39;94432.03;5131509;27;20418;-76
2021/01/15 09:31:51;;;;;;;4.40;3.97;;;;;;;2.53;50.35;94434.78;5133009;27;20180;-76
2021/01/15 09:34:16;;;;;;;7.78;4.15;;;;;;;2.72;49.62;94429.25;5132884;27;20169;-76
2021/01/15 09:36:46;;;;;;;5.63;3.40;;;;;;;2.61;48.48;94434.03;5132851;27;20232;-75
2021/01/15 09:39:12;;;;;;;5.82;3.58;;;;;;;2.85;48.75;94433.63;5132847;27;20172;-75
2021/01/15 09:41:51;;;;;;;9.60;4.00;;;;;;;2.94;48.42;94427.63;5132889;27;20235;-75
2021/01/15 09:44:17;;;;;;;4.97;3.25;;;;;;;3.09;46.43;94424.53;5148516;27;20506;-77
2021/01/15 09:46:43;;;;;;;4.73;3.17;;;;;;;3.19;46.92;94432.91;5132829;27;20206;-76
2021/01/15 09:49:08;;;;;;;5.80;3.53;;;;;;;3.08;47.07;94438.78;5132549;27;20157;-76
2021/01/15 09:51:34;;;;;;;6.27;3.50;;;;;;;3.45;46.43;94432.16;5131649;27;20233;-76
2021/01/15 09:53:59;;;;;;;4.33;3.10;;;;;;;3.71;45.35;94426.88;5132566;27;20161;-75
2021/01/15 09:56:29;;;;;;;4.20;3.80;;;;;;;3.82;46.04;94420.19;5132762;27;20211;-76
2021/01/15 09:58:58;;;;;;;7.38;3.25;;;;;;;4.18;44.33;94433.00;5132438;27;20683;-77
2021/01/15 10:01:27;;;;;;;6.00;3.22;;;;;;;4.06;44.00;94432.88;5132559;27;20775;-75
2021/01/15 10:03:53;;;;;;;6.10;3.60;;;;;;;3.84;44.40;94423.28;5132548;27;20615;-76
2021/01/15 10:06:19;;;;;;;4.03;3.00;;;;;;;4.10;44.04;94414.56;5132575;27;20668;-75
2021/01/15 10:08:45;;;;;;;9.00;3.70;;;;;;;4.21;43.73;94418.41;5132676;27;20177;-76
2021/01/15 10:11:20;;;;;;;3.57;2.80;;;;;;;4.22;43.62;94401.47;5132159;27;20168;-75
2021/01/15 10:13:46;;;;;;;6.90;3.15;;;;;;;3.88;44.58;94410.25;5148351;27;20180;-75
2021/01/15 10:16:12;;;;;;;5.63;3.50;;;;;;;3.48;45.53;94407.00;5132186;27;20245;-76
2021/01/15 10:18:38;;;;;;;4.23;3.10;;;;;;;3.54;45.75;94403.16;5132401;27;20165;-75
2021/01/15 10:21:04;;;;;;;6.25;3.22;;;;;;;3.42;44.79;94399.25;5132109;27;20172;-75
2021/01/15 10:23:29;;;;;;;4.47;3.37;;;;;;;3.04;46.31;94404.38;5130637;28;20181;-76
2021/01/15 10:25:55;;;;;;;5.40;3.43;;;;;;;2.83;46.81;94396.25;5131889;27;20197;-76
2021/01/15 10:28:21;;;;;;;4.03;3.47;;;;;;;2.46;47.48;94397.53;5132328;27;20168;-75
2021/01/15 10:30:49;;;;;;;6.97;3.43;;;;;;;2.23;48.38;94383.66;5132019;28;20200;-76
2021/01/15 10:33:15;;;;;;;5.45;3.50;;;;;;;2.38;48.33;94385.13;5148331;27;20224;-75
2021/01/15 10:35:40;;;;;;;6.37;3.87;;;;;;;2.32;47.65;94383.72;5131862;28;20173;-76
2021/01/15 10:38:06;;;;;;;5.57;3.10;;;;;;;1.89;49.11;94394.03;5132281;28;20172;-76
2021/01/15 10:40:31;;;;;;;7.77;4.33;;;;;;;1.73;51.18;94386.50;5132289;28;20169;-76
2021/01/15 10:42:57;;;;;;;5.70;3.80;;;;;;;1.80;51.36;94378.22;5130280;28;20212;-76
2021/01/15 10:45:23;;;;;;;15.00;4.20;;;;;;;2.02;50.88;94390.53;5132216;28;20214;-76
2021/01/15 10:47:48;;;;;;;8.23;4.73;;;;;;;2.12;50.01;94388.41;5130827;28;20165;-76
2021/01/15 10:50:15;;;;;;;8.37;4.07;;;;;;;2.19;48.64;94388.00;5131977;28;20553;-76
2021/01/15 10:52:41;;;;;;;5.20;3.65;;;;;;;1.99;48.85;94362.97;5131900;28;20247;-75
2021/01/15 10:55:07;;;;;;;4.57;3.20;;;;;;;2.08;48.93;94376.19;5132129;28;20184;-76
2021/01/15 10:57:33;;;;;;;4.85;3.20;;;;;;;1.69;48.74;94379.53;5112706;28;20185;-76
2021/01/15 10:59:58;;;;;;;5.17;3.93;;;;;;;1.80;49.31;94365.81;5113247;28;20668;-75
2021/01/15 11:02:24;;;;;;;4.60;3.53;;;;;;;1.77;50.27;94363.00;5131626;28;20204;-76
2021/01/15 11:04:49;;;;;;;6.70;4.30;;;;;;;1.80;49.51;94365.06;5113549;28;20173;-75
2021/01/15 11:07:15;;;;;;;6.20;4.13;;;;;;;1.48;49.67;94340.56;5131800;28;20622;-73
2021/01/15 11:09:40;;;;;;;7.87;4.20;;;;;;;1.55;50.09;94363.81;5131825;28;20698;-74
2021/01/15 11:12:06;;;;;;;7.53;3.87;;;;;;;1.54;50.71;94354.38;5132017;28;20204;-74
2021/01/15 11:14:31;;;;;;;4.27;3.70;;;;;;;1.72;50.62;94356.00;5130727;28;20583;-74
2021/01/15 11:16:57;;;;;;;7.43;4.70;;;;;;;1.89;50.00;94347.44;5130572;28;20186;-75
2021/01/15 11:19:23;;;;;;;9.33;4.60;;;;;;;1.89;50.11;94352.69;5113305;28;20552;-75
2021/01/15 11:21:50;;;;;;;8.27;4.30;;;;;;;1.99;50.04;94349.03;5130497;28;20227;-74
2021/01/15 11:24:16;;;;;;;5.28;4.05;;;;;;;1.75;50.01;94347.53;5131461;28;20165;-74
2021/01/15 11:26:41;;;;;;;5.53;4.33;;;;;;;1.95;51.28;94353.34;5131676;28;20581;-74
2021/01/15 11:29:08;;;;;;;4.80;3.93;;;;;;;1.91;51.39;94329.50;5133350;27;20191;-75
2021/01/15 11:31:34;;;;;;;6.20;4.05;;;;;;;2.10;51.05;94339.78;5116933;27;20229;-75
2021/01/15 11:33:59;;;;;;;10.40;4.10;;;;;;;2.17;50.14;94337.47;5134254;27;20588;-75
2021/01/15 11:36:31;;;;;;;6.00;4.40;;;;;;;2.37;50.59;94334.28;5119388;27;20256;-73
2021/01/15 11:39:22;;;;;;;4.43;3.78;;;;;;;2.39;48.78;94323.44;5135184;27;20176;-75
2021/01/15 11:41:52;;;;;;;6.03;3.92;;;;;;;2.18;48.52;94322.44;5132198;27;20208;-74
2021/01/15 11:44:18;;;;;;;5.88;3.92;;;;;;;1.93;49.30;94337.06;5132559;27;20173;-74
2021/01/15 11:46:43;;;;;;;6.80;3.87;;;;;;;2.04;49.56;94317.28;5127549;27;20183;-76
2021/01/15 11:49:09;;;;;;;5.10;3.77;;;;;;;2.33;49.33;94328.06;5151156;27;20177;-76
2021/01/15 11:51:34;;;;;;;5.53;3.97;;;;;;;2.23;49.48;94322.31;5134867;27;20260;-75